createdAt,value
2018-04-16T00:01:08.615Z,99.90
2018-04-16T00:03:36.870Z,99.90
2018-04-16T00:06:05.119Z,99.90
2018-04-16T00:08:33.388Z,99.90
2018-04-16T00:11:02.503Z,99.90
2018-04-16T00:13:31.636Z,99.90
2018-04-16T00:15:59.914Z,99.90
2018-04-16T00:18:28.160Z,99.90
2018-04-16T00:20:56.417Z,99.90
2018-04-16T00:23:24.702Z,99.90
2018-04-16T00:25:52.964Z,99.90
2018-04-16T00:28:22.004Z,99.90
2018-04-16T00:30:50.283Z,99.90
2018-04-16T00:33:24.265Z,99.90
2018-04-16T00:35:58.181Z,99.90
2018-04-16T00:38:32.247Z,99.90
2018-04-16T00:41:06.166Z,99.90
2018-04-16T00:43:40.961Z,99.90
2018-04-16T00:46:14.991Z,99.90
2018-04-16T00:48:49.153Z,99.90
2018-04-16T00:51:23.080Z,99.90
2018-04-16T00:54:09.224Z,99.90
2018-04-16T00:56:43.777Z,99.90
2018-04-16T00:59:17.816Z,99.90
2018-04-16T01:01:51.794Z,99.90
2018-04-16T01:04:26.525Z,99.90
2018-04-16T01:07:01.265Z,99.90
2018-04-16T01:09:35.192Z,99.90
2018-04-16T01:12:09.056Z,99.90
2018-04-16T01:14:43.813Z,99.90
2018-04-16T01:17:18.735Z,99.90
2018-04-16T01:19:53.354Z,99.90
2018-04-16T01:22:28.154Z,99.90
2018-04-16T01:25:03.788Z,99.90
2018-04-16T01:27:38.284Z,99.90
2018-04-16T01:30:12.222Z,99.90
2018-04-16T01:35:58.413Z,99.90
2018-04-16T01:38:32.266Z,99.90
2018-04-16T01:44:12.294Z,99.90
2018-04-16T01:46:47.046Z,99.90
2018-04-16T01:49:21.053Z,99.90
2018-04-16T01:51:55.108Z,99.90
2018-04-16T01:54:29.031Z,99.90
2018-04-16T01:57:02.902Z,99.90
2018-04-16T01:59:36.774Z,99.90
2018-04-16T02:02:10.872Z,99.90
2018-04-16T02:04:54.887Z,99.90
2018-04-16T02:07:28.706Z,99.90
2018-04-16T02:10:02.651Z,99.90
2018-04-16T02:12:36.593Z,99.90
2018-04-16T02:15:10.625Z,99.90
2018-04-16T02:17:44.573Z,99.90
2018-04-16T02:20:18.615Z,99.90
2018-04-16T02:22:53.493Z,99.90
2018-04-16T02:25:27.578Z,99.90
2018-04-16T02:28:01.583Z,99.90
2018-04-16T02:30:35.530Z,99.90
2018-04-16T02:33:09.637Z,99.90
2018-04-16T02:35:43.688Z,99.90
2018-04-16T02:38:17.572Z,99.90
2018-04-16T02:40:51.508Z,99.90
2018-04-16T02:43:25.458Z,99.90
2018-04-16T02:45:59.361Z,99.90
2018-04-16T02:48:33.382Z,99.90
2018-04-16T02:51:07.343Z,99.90
2018-04-16T02:53:42.080Z,99.90
2018-04-16T02:56:15.997Z,99.90
2018-04-16T02:58:50.074Z,99.90
2018-04-16T03:01:24.095Z,99.90
2018-04-16T03:03:58.068Z,99.90
2018-04-16T03:06:32.954Z,99.90
2018-04-16T03:09:07.746Z,99.90
2018-04-16T03:11:41.609Z,99.90
2018-04-16T03:14:15.612Z,99.90
2018-04-16T03:16:50.712Z,99.90
2018-04-16T03:22:31.833Z,99.90
2018-04-16T03:25:06.746Z,99.90
2018-04-16T03:27:40.974Z,99.90
2018-04-16T03:30:14.853Z,99.90
2018-04-16T03:32:48.866Z,99.90
2018-04-16T03:35:22.917Z,99.90
2018-04-16T03:37:57.778Z,99.90
2018-04-16T03:40:31.780Z,99.90
2018-04-16T03:43:05.828Z,99.90
2018-04-16T03:45:39.759Z,99.90
2018-04-16T03:48:13.778Z,99.90
2018-04-16T03:50:47.743Z,99.90
2018-04-16T03:53:16.908Z,99.90
2018-04-16T03:56:00.899Z,99.90
2018-04-16T03:58:29.157Z,99.90
2018-04-16T04:00:57.438Z,99.90
2018-04-16T04:03:25.691Z,99.90
2018-04-16T04:05:54.717Z,99.90
2018-04-16T04:08:23.792Z,99.90
2018-04-16T04:10:52.798Z,99.90
2018-04-16T04:13:21.099Z,99.90
2018-04-16T04:15:49.319Z,99.90
2018-04-16T04:18:19.580Z,99.90
2018-04-16T04:20:50.983Z,99.90
2018-04-16T04:23:35.197Z,99.90
2018-04-16T04:29:04.308Z,99.90
2018-04-16T04:31:34.119Z,99.90
2018-04-16T04:34:02.774Z,99.90
2018-04-16T04:36:31.018Z,99.90
2018-04-16T04:38:59.305Z,99.90
2018-04-16T04:41:27.940Z,99.90
2018-04-16T04:43:56.189Z,99.90
2018-04-16T04:46:25.312Z,99.90
2018-04-16T04:48:53.566Z,99.90
2018-04-16T04:51:22.598Z,99.90
2018-04-16T04:53:50.849Z,99.90
2018-04-16T04:56:19.098Z,99.90
2018-04-16T04:58:47.359Z,99.90
2018-04-16T05:01:15.624Z,99.90
2018-04-16T05:03:43.957Z,99.90
2018-04-16T05:06:12.265Z,99.90
2018-04-16T05:08:40.511Z,99.90
2018-04-16T05:11:09.549Z,99.90
2018-04-16T05:13:37.787Z,99.90
2018-04-16T05:16:06.049Z,99.90
2018-04-16T05:18:35.047Z,99.90
2018-04-16T05:21:04.141Z,99.90
2018-04-16T05:23:32.509Z,99.90
2018-04-16T05:26:01.526Z,99.90
2018-04-16T05:28:29.808Z,99.90
2018-04-16T05:30:58.086Z,99.90
2018-04-16T05:33:27.605Z,99.90
2018-04-16T05:35:55.870Z,99.90
2018-04-16T05:38:24.935Z,99.90
2018-04-16T05:40:53.989Z,99.90
2018-04-16T05:43:22.476Z,99.90
2018-04-16T05:45:50.737Z,99.90
2018-04-16T05:48:18.989Z,99.90
2018-04-16T05:50:47.240Z,99.90
2018-04-16T05:53:15.507Z,99.90
2018-04-16T05:55:43.723Z,99.90
2018-04-16T05:58:12.013Z,99.90
2018-04-16T06:00:42.613Z,99.90
2018-04-16T06:03:11.654Z,99.90
2018-04-16T06:05:39.948Z,99.90
2018-04-16T06:08:08.213Z,99.90
2018-04-16T06:10:36.498Z,99.90
2018-04-16T06:13:04.719Z,99.90
2018-04-16T06:15:33.758Z,99.90
2018-04-16T06:18:02.026Z,99.90
2018-04-16T06:20:30.278Z,99.90
2018-04-16T06:22:59.325Z,99.90
2018-04-16T06:25:27.590Z,99.90
2018-04-16T06:27:55.854Z,99.90
2018-04-16T06:30:24.925Z,99.90
2018-04-16T06:32:53.191Z,99.90
2018-04-16T06:35:21.482Z,99.90
2018-04-16T06:37:50.512Z,99.90
2018-04-16T06:40:18.774Z,99.90
2018-04-16T06:42:47.071Z,99.90
2018-04-16T06:45:15.330Z,99.90
2018-04-16T06:47:43.684Z,99.90
2018-04-16T06:50:12.747Z,99.90
2018-04-16T06:52:40.987Z,99.90
2018-04-16T06:55:09.248Z,99.90
2018-04-16T06:57:38.276Z,99.90
2018-04-16T07:00:06.528Z,99.90
2018-04-16T07:02:34.796Z,99.90
2018-04-16T07:05:04.049Z,99.90
2018-04-16T07:07:32.286Z,99.90
2018-04-16T07:10:00.537Z,99.90
2018-04-16T07:12:29.544Z,99.90
2018-04-16T07:14:57.859Z,99.90
2018-04-16T07:17:26.085Z,99.90
2018-04-16T07:19:55.932Z,99.90
2018-04-16T07:22:25.120Z,99.90
2018-04-16T07:24:54.135Z,99.90
2018-04-16T07:27:22.444Z,99.90
2018-04-16T07:29:50.654Z,99.90
2018-04-16T07:32:19.669Z,99.90
2018-04-16T07:34:47.936Z,99.90
2018-04-16T07:37:16.173Z,99.90
2018-04-16T07:39:44.412Z,99.90
2018-04-16T07:42:12.684Z,99.90
2018-04-16T07:44:41.451Z,99.90
2018-04-16T07:47:09.705Z,99.90
2018-04-16T07:49:38.758Z,99.90
2018-04-16T07:52:07.009Z,99.90
2018-04-16T07:54:35.278Z,99.90
2018-04-16T07:57:04.563Z,99.90
2018-04-16T07:59:33.586Z,99.90
2018-04-16T08:02:02.765Z,99.90
2018-04-16T08:04:31.774Z,99.90
2018-04-16T08:07:00.082Z,99.90
2018-04-16T08:09:29.036Z,99.90
2018-04-16T08:11:58.046Z,99.90
2018-04-16T08:14:26.333Z,99.90
2018-04-16T08:16:54.966Z,99.90
2018-04-16T08:19:23.282Z,99.90
2018-04-16T08:21:52.279Z,99.90
2018-04-16T08:24:21.310Z,99.90
2018-04-16T08:26:49.582Z,99.90
2018-04-16T08:29:17.812Z,99.90
2018-04-16T08:31:46.896Z,99.90
2018-04-16T08:34:15.282Z,99.90
2018-04-16T08:36:43.682Z,99.90
2018-04-16T08:39:12.704Z,99.90
2018-04-16T08:41:40.989Z,99.90
2018-04-16T08:44:09.216Z,99.90
2018-04-16T08:46:38.217Z,99.90
2018-04-16T08:49:07.280Z,99.90
2018-04-16T08:51:35.582Z,99.90
2018-04-16T08:54:03.825Z,99.90
2018-04-16T08:56:32.593Z,99.90
2018-04-16T08:59:00.872Z,99.90
2018-04-16T09:01:29.138Z,99.90
2018-04-16T09:03:57.426Z,99.90
2018-04-16T09:06:25.704Z,99.90
2018-04-16T09:08:53.947Z,99.90
2018-04-16T09:11:22.321Z,99.90
2018-04-16T09:13:50.579Z,99.90
2018-04-16T09:16:18.863Z,99.90
2018-04-16T09:18:47.942Z,99.90
2018-04-16T09:21:16.181Z,99.90
2018-04-16T09:23:44.420Z,99.90
2018-04-16T09:26:12.689Z,99.90
2018-04-16T09:28:40.980Z,99.90
2018-04-16T09:31:10.030Z,99.90
2018-04-16T09:33:38.321Z,99.90
2018-04-16T09:36:07.352Z,99.90
2018-04-16T09:38:36.421Z,99.90
2018-04-16T09:41:06.296Z,99.90
2018-04-16T09:43:34.519Z,99.90
2018-04-16T09:46:02.757Z,99.90
2018-04-16T09:48:31.836Z,99.90
2018-04-16T09:51:00.301Z,99.90
2018-04-16T09:53:28.849Z,99.90
2018-04-16T09:55:57.362Z,99.90
2018-04-16T09:58:25.594Z,99.90
2018-04-16T10:00:54.750Z,99.90
2018-04-16T10:03:22.990Z,99.90
2018-04-16T10:05:51.253Z,99.90
2018-04-16T10:08:19.953Z,99.90
2018-04-16T10:10:48.988Z,99.90
2018-04-16T10:13:17.268Z,99.90
2018-04-16T10:15:46.344Z,99.90
2018-04-16T10:18:14.660Z,99.90
2018-04-16T10:20:43.288Z,99.90
2018-04-16T10:23:11.710Z,99.90
2018-04-16T10:25:40.459Z,99.90
2018-04-16T10:28:09.500Z,99.90
2018-04-16T10:30:37.758Z,99.90
2018-04-16T10:33:06.927Z,99.90
2018-04-16T10:35:35.185Z,99.90
2018-04-16T10:38:03.506Z,99.90
2018-04-16T10:40:32.550Z,99.90
2018-04-16T10:43:01.461Z,99.90
2018-04-16T10:45:29.714Z,99.90
2018-04-16T10:47:57.984Z,99.90
2018-04-16T10:50:26.389Z,99.90
2018-04-16T10:52:54.699Z,99.90
2018-04-16T10:55:24.123Z,99.90
2018-04-16T10:57:54.104Z,99.90
2018-04-16T11:00:23.509Z,99.90
2018-04-16T11:02:51.747Z,99.90
2018-04-16T11:05:20.085Z,99.90
2018-04-16T11:07:50.310Z,99.90
2018-04-16T11:10:18.720Z,99.90
2018-04-16T11:12:47.460Z,99.90
2018-04-16T11:15:16.248Z,99.90
2018-04-16T11:17:45.310Z,99.90
2018-04-16T11:20:13.565Z,99.90
2018-04-16T11:22:41.836Z,99.90
2018-04-16T11:25:11.030Z,99.90
2018-04-16T11:27:39.330Z,99.90
2018-04-16T11:30:07.602Z,99.90
2018-04-16T11:32:35.893Z,99.90
2018-04-16T11:35:05.147Z,99.90
2018-04-16T11:37:34.149Z,99.90
2018-04-16T11:40:03.196Z,99.90
2018-04-16T11:42:32.264Z,99.90
2018-04-16T11:45:03.527Z,99.90
2018-04-16T11:47:32.822Z,99.90
2018-04-16T11:50:01.233Z,99.90
2018-04-16T11:52:29.554Z,99.90
2018-04-16T11:54:58.927Z,99.90
2018-04-16T11:57:27.201Z,99.90
2018-04-16T11:59:55.522Z,99.90
2018-04-16T12:02:24.592Z,99.90
2018-04-16T12:04:52.888Z,99.90
2018-04-16T12:07:21.123Z,99.90
2018-04-16T12:09:49.414Z,99.90
2018-04-16T12:12:17.673Z,99.90
2018-04-16T12:14:45.995Z,99.90
2018-04-16T12:17:15.000Z,99.90
2018-04-16T12:19:43.496Z,99.90
2018-04-16T12:22:12.046Z,99.90
2018-04-16T12:24:41.831Z,99.90
2018-04-16T12:27:10.831Z,99.90
2018-04-16T12:29:39.225Z,99.90
2018-04-16T12:32:07.532Z,99.90
2018-04-16T12:34:38.340Z,99.90
2018-04-16T12:37:06.650Z,99.90
2018-04-16T12:39:35.154Z,99.90
2018-04-16T12:42:04.179Z,99.90
2018-04-16T12:44:32.436Z,99.90
2018-04-16T12:47:00.723Z,99.90
2018-04-16T12:49:29.322Z,99.90
2018-04-16T12:51:57.608Z,99.90
2018-04-16T12:54:26.646Z,99.90
2018-04-16T12:56:54.899Z,99.90
2018-04-16T12:59:23.236Z,99.90
2018-04-16T13:01:52.892Z,99.90
2018-04-16T13:04:22.768Z,99.90
2018-04-16T13:06:51.041Z,99.90
2018-04-16T13:09:19.855Z,99.90
2018-04-16T13:11:48.111Z,99.90
2018-04-16T13:14:16.397Z,99.90
2018-04-16T13:16:44.664Z,99.90
2018-04-16T13:19:12.972Z,99.90
2018-04-16T13:21:41.449Z,99.90
2018-04-16T13:24:10.960Z,99.90
2018-04-16T13:26:39.507Z,99.90
2018-04-16T13:29:08.236Z,99.90
2018-04-16T13:31:37.146Z,99.90
2018-04-16T13:34:05.554Z,99.90
2018-04-16T13:36:33.846Z,99.90
2018-04-16T13:39:02.463Z,99.90
2018-04-16T13:41:31.213Z,99.90
2018-04-16T13:44:00.363Z,99.90
2018-04-16T13:46:28.824Z,99.90
2018-04-16T13:48:58.040Z,99.90
2018-04-16T13:51:27.126Z,99.90
2018-04-16T13:53:55.805Z,99.90
2018-04-16T13:56:24.684Z,99.90
2018-04-16T13:58:53.906Z,99.90
2018-04-16T14:01:23.698Z,99.90
2018-04-16T14:03:52.005Z,99.90
2018-04-16T14:06:20.309Z,99.90
2018-04-16T14:08:49.444Z,99.90
2018-04-16T14:11:18.545Z,99.90
2018-04-16T14:13:47.258Z,99.90
2018-04-16T14:16:15.789Z,99.90
2018-04-16T14:18:45.760Z,99.90
2018-04-16T14:21:14.041Z,99.90
2018-04-16T14:23:42.304Z,99.90
2018-04-16T14:26:11.976Z,99.90
2018-04-16T14:28:40.285Z,99.90
2018-04-16T14:31:08.589Z,99.90
2018-04-16T14:33:37.724Z,99.90
2018-04-16T14:36:07.808Z,99.90
2018-04-16T14:38:36.923Z,99.90
2018-04-16T14:41:06.074Z,99.90
2018-04-16T14:43:35.597Z,99.90
2018-04-16T14:46:04.893Z,99.90
2018-04-16T14:48:34.013Z,99.90
2018-04-16T14:51:03.974Z,99.90
2018-04-16T14:53:35.225Z,99.90
2018-04-16T14:56:03.560Z,99.90
2018-04-16T14:58:32.713Z,99.90
2018-04-16T15:01:01.898Z,99.90
2018-04-16T15:03:31.857Z,99.90
2018-04-16T15:06:01.767Z,99.90
2018-04-16T15:08:30.021Z,99.90
2018-04-16T15:10:58.286Z,99.90
2018-04-16T15:13:26.617Z,99.90
2018-04-16T15:15:56.046Z,98.50
2018-04-16T15:18:25.536Z,98.40
2018-04-16T15:20:54.374Z,98.70
2018-04-16T15:23:22.732Z,98.40
2018-04-16T15:25:51.737Z,99.30
2018-04-16T15:28:21.335Z,99.30
2018-04-16T15:30:49.902Z,99.40
2018-04-16T15:33:18.940Z,99.30
2018-04-16T15:35:47.502Z,99.20
2018-04-16T15:38:16.406Z,99.10
2018-04-16T15:40:44.992Z,99.10
2018-04-16T15:43:13.370Z,99.90
2018-04-16T15:45:41.705Z,99.10
2018-04-16T15:48:10.739Z,99.50
2018-04-16T15:50:40.682Z,99.50
2018-04-16T15:53:08.942Z,99.40
2018-04-16T15:55:37.578Z,99.50
2018-04-16T15:58:07.026Z,99.50
2018-04-16T16:00:37.781Z,99.60
2018-04-16T16:03:07.484Z,99.70
2018-04-16T16:05:35.894Z,99.90
2018-04-16T16:08:04.288Z,99.70
2018-04-16T16:10:32.632Z,98.70
2018-04-16T16:13:00.910Z,99.20
2018-04-16T16:15:29.518Z,99.10
2018-04-16T16:17:58.775Z,99.00
2018-04-16T16:20:27.197Z,98.80
2018-04-16T16:22:55.437Z,98.90
2018-04-16T16:25:24.569Z,98.50
2018-04-16T16:27:52.877Z,98.30
2018-04-16T16:30:22.403Z,98.90
2018-04-16T16:32:51.861Z,98.20
2018-04-16T16:35:20.130Z,98.20
2018-04-16T16:37:48.446Z,98.50
2018-04-16T16:40:17.520Z,98.30
2018-04-16T16:42:45.775Z,98.30
2018-04-16T16:45:16.596Z,98.90
2018-04-16T16:47:44.879Z,98.90
2018-04-16T16:50:13.183Z,99.20
2018-04-16T16:52:41.429Z,99.10
2018-04-16T16:55:09.726Z,98.90
2018-04-16T16:57:38.073Z,98.70
2018-04-16T17:00:07.172Z,99.40
2018-04-16T17:02:35.553Z,99.30
2018-04-16T17:05:03.805Z,99.60
2018-04-16T17:07:32.126Z,99.90
2018-04-16T17:10:00.461Z,99.90
2018-04-16T17:12:29.492Z,99.90
2018-04-16T17:14:57.794Z,99.90
2018-04-16T17:17:26.083Z,99.90
2018-04-16T17:19:54.337Z,99.90
2018-04-16T17:22:22.671Z,99.90
2018-04-16T17:24:51.719Z,99.90
2018-04-16T17:27:20.915Z,99.90
2018-04-16T17:29:49.212Z,99.90
2018-04-16T17:32:19.131Z,99.90
2018-04-16T17:34:47.610Z,99.90
2018-04-16T17:37:15.967Z,99.90
2018-04-16T17:39:44.463Z,99.90
2018-04-16T17:42:12.820Z,99.90
2018-04-16T17:44:41.088Z,99.90
2018-04-16T17:47:11.022Z,99.90
2018-04-16T17:49:39.291Z,99.90
2018-04-16T17:52:07.551Z,99.90
2018-04-16T17:54:35.807Z,99.90
2018-04-16T17:57:04.867Z,99.90
2018-04-16T17:59:34.650Z,99.90
2018-04-16T18:02:04.640Z,99.90
2018-04-16T18:04:34.281Z,99.90
2018-04-16T18:07:02.586Z,99.90
2018-04-16T18:09:30.836Z,99.90
2018-04-16T18:11:59.097Z,99.90
2018-04-16T18:14:27.462Z,99.90
2018-04-16T18:16:56.679Z,99.90
2018-04-16T18:19:24.994Z,99.90
2018-04-16T18:21:53.245Z,99.90
2018-04-16T18:24:21.601Z,99.90
2018-04-16T18:26:50.659Z,99.90
2018-04-16T18:29:20.060Z,99.90
2018-04-16T18:31:48.360Z,99.90
2018-04-16T18:34:17.434Z,99.90
2018-04-16T18:36:46.506Z,99.90
2018-04-16T18:39:14.806Z,99.90
2018-04-16T18:41:43.958Z,99.90
2018-04-16T18:44:12.213Z,99.90
2018-04-16T18:46:40.511Z,99.90
2018-04-16T18:49:08.798Z,99.90
2018-04-16T18:51:37.069Z,99.90
2018-04-16T18:54:05.372Z,99.90
2018-04-16T18:56:33.661Z,99.90
2018-04-16T18:59:02.789Z,99.90
2018-04-16T19:01:33.670Z,99.90
2018-04-16T19:04:02.421Z,99.90
2018-04-16T19:06:31.521Z,99.90
2018-04-16T19:08:59.801Z,99.90
2018-04-16T19:11:28.252Z,99.90
2018-04-16T19:13:56.515Z,99.90
2018-04-16T19:16:24.960Z,99.90
2018-04-16T19:18:53.237Z,99.90
2018-04-16T19:21:40.253Z,99.90
2018-04-16T19:24:08.501Z,99.90
2018-04-16T19:26:37.617Z,99.90
2018-04-16T19:29:06.664Z,99.90
2018-04-16T19:31:34.946Z,99.90
2018-04-16T19:34:21.218Z,99.90
2018-04-16T19:36:49.646Z,99.90
2018-04-16T19:39:18.784Z,99.90
2018-04-16T19:41:53.877Z,99.90
2018-04-16T19:44:22.203Z,99.90
2018-04-16T19:46:50.531Z,99.90
2018-04-16T19:49:24.667Z,99.90
2018-04-16T19:51:53.874Z,99.90
2018-04-16T19:54:23.007Z,99.90
2018-04-16T19:56:56.952Z,99.90
2018-04-16T19:59:25.415Z,99.90
2018-04-16T20:01:59.332Z,99.90
2018-04-16T20:04:28.480Z,99.90
2018-04-16T20:06:56.788Z,99.90
2018-04-16T20:09:25.952Z,99.90
2018-04-16T20:11:55.375Z,99.90
2018-04-16T20:14:23.981Z,99.90
2018-04-16T20:16:52.277Z,99.90
2018-04-16T20:19:23.092Z,99.90
2018-04-16T20:21:53.768Z,99.90
2018-04-16T20:24:22.885Z,99.90
2018-04-16T20:26:51.985Z,99.90
2018-04-16T20:29:20.263Z,99.90
2018-04-16T20:31:48.540Z,99.90
2018-04-16T20:34:18.320Z,99.90
2018-04-16T20:36:48.387Z,99.90
2018-04-16T20:39:16.928Z,99.90
2018-04-16T20:41:45.262Z,99.90
2018-04-16T20:44:13.597Z,99.90
2018-04-16T20:46:43.959Z,99.90
2018-04-16T20:49:12.639Z,99.90
2018-04-16T20:51:41.002Z,99.90
2018-04-16T20:54:10.061Z,99.90
2018-04-16T20:56:38.372Z,99.90
2018-04-16T20:59:07.032Z,99.90
2018-04-16T21:01:35.301Z,99.90
2018-04-16T21:04:03.646Z,99.90
2018-04-16T21:06:31.914Z,99.90
2018-04-16T21:09:00.218Z,99.90
2018-04-16T21:11:30.684Z,99.90
2018-04-16T21:13:58.975Z,99.90
2018-04-16T21:16:28.040Z,99.90
2018-04-16T21:18:57.374Z,99.90
2018-04-16T21:21:26.408Z,99.90
2018-04-16T21:23:54.788Z,99.90
2018-04-16T21:26:25.177Z,99.90
2018-04-16T21:28:54.401Z,99.90
2018-04-16T21:31:23.046Z,99.90
2018-04-16T21:33:51.297Z,99.90
2018-04-16T21:36:19.629Z,99.90
2018-04-16T21:38:48.660Z,99.90
2018-04-16T21:41:17.180Z,99.90
2018-04-16T21:43:46.271Z,99.90
2018-04-16T21:46:15.488Z,99.90
2018-04-16T21:48:44.050Z,99.90
2018-04-16T21:51:12.285Z,99.90
2018-04-16T21:53:40.590Z,99.90
2018-04-16T21:56:08.850Z,99.90
2018-04-16T21:58:37.111Z,99.90
2018-04-16T22:01:05.425Z,99.90
2018-04-16T22:03:33.744Z,99.90
2018-04-16T22:06:02.014Z,99.90
2018-04-16T22:08:31.396Z,99.90
2018-04-16T22:10:59.679Z,99.90
2018-04-16T22:13:28.115Z,99.90
2018-04-16T22:15:56.378Z,99.90
2018-04-16T22:18:25.391Z,99.90
2018-04-16T22:20:53.663Z,99.90
2018-04-16T22:23:23.187Z,99.90
2018-04-16T22:25:53.130Z,99.90
2018-04-16T22:28:21.410Z,99.90
2018-04-16T22:30:49.658Z,99.90
2018-04-16T22:33:18.762Z,99.90
2018-04-16T22:35:47.044Z,99.90
2018-04-16T22:38:15.291Z,99.90
2018-04-16T22:40:44.437Z,99.90
2018-04-16T22:43:12.720Z,99.90
2018-04-16T22:45:40.974Z,99.90
2018-04-16T22:48:09.606Z,99.90
2018-04-16T22:50:39.602Z,99.90
2018-04-16T22:53:07.883Z,99.90
2018-04-16T22:55:37.301Z,99.90
2018-04-16T22:58:06.348Z,99.90
2018-04-16T23:00:34.607Z,99.90
2018-04-16T23:03:03.410Z,99.90
2018-04-16T23:05:31.845Z,99.90
2018-04-16T23:08:00.509Z,99.90
2018-04-16T23:10:28.818Z,99.90
2018-04-16T23:12:57.155Z,99.90
2018-04-16T23:15:25.746Z,99.90
2018-04-16T23:17:55.610Z,99.90
2018-04-16T23:20:23.866Z,99.90
2018-04-16T23:22:52.902Z,99.90
2018-04-16T23:25:21.153Z,99.90
2018-04-16T23:27:49.530Z,99.90
2018-04-16T23:30:17.784Z,99.90
2018-04-16T23:32:47.203Z,99.90
2018-04-16T23:35:16.266Z,99.90
2018-04-16T23:37:44.502Z,99.90
2018-04-16T23:40:13.092Z,99.90
2018-04-16T23:42:42.083Z,99.90
2018-04-16T23:45:10.333Z,99.90
2018-04-16T23:47:40.059Z,99.90
2018-04-16T23:50:08.305Z,99.90
2018-04-16T23:52:38.027Z,99.90
2018-04-16T23:55:06.396Z,99.90
2018-04-16T23:57:34.695Z,99.90
